sensor_id;sensor_type;location;lat;lon;timestamp;pressure;altitude;pressure_sealevel;temperature;humidity
57234;BME280;43090;52.604;13.318;2023-09-30T00:01:51;101453.69;;;16.74;100.00
57234;BME280;43090;52.604;13.318;2023-09-30T00:04:18;101453.72;;;16.62;100.00
57234;BME280;43090;52.604;13.318;2023-09-30T00:06:45;101443.31;;;16.37;98.08
57234;BME280;43090;52.604;13.318;2023-09-30T00:09:12;101463.22;;;16.57;96.78
57234;BME280;43090;52.604;13.318;2023-09-30T00:11:42;101479.59;;;16.55;95.71
57234;BME280;43090;52.604;13.318;2023-09-30T00:14:30;101471.84;;;16.51;94.21
57234;BME280;43090;52.604;13.318;2023-09-30T00:16:59;101489.13;;;16.38;95.34
57234;BME280;43090;52.604;13.318;2023-09-30T00:19:28;101507.41;;;16.46;93.96
57234;BME280;43090;52.604;13.318;2023-09-30T00:21:55;101523.13;;;16.41;91.55
57234;BME280;43090;52.604;13.318;2023-09-30T00:24:24;101507.00;;;16.18;90.26
57234;BME280;43090;52.604;13.318;2023-09-30T00:26:52;101490.72;;;15.86;90.16
57234;BME280;43090;52.604;13.318;2023-09-30T00:29:19;101490.81;;;16.07;90.18
57234;BME280;43090;52.604;13.318;2023-09-30T00:31:45;101538.66;;;16.27;89.53
57234;BME280;43090;52.604;13.318;2023-09-30T00:34:20;101519.78;;;16.05;89.43
57234;BME280;43090;52.604;13.318;2023-09-30T00:36:46;101523.88;;;15.88;87.64
57234;BME280;43090;52.604;13.318;2023-09-30T00:39:14;101518.97;;;15.93;86.36
57234;BME280;43090;52.604;13.318;2023-09-30T00:41:44;101534.25;;;16.15;87.53
57234;BME280;43090;52.604;13.318;2023-09-30T00:44:10;101519.41;;;16.09;87.21
57234;BME280;43090;52.604;13.318;2023-09-30T00:46:37;101552.31;;;16.03;87.03
57234;BME280;43090;52.604;13.318;2023-09-30T00:49:09;101546.91;;;16.03;87.59
57234;BME280;43090;52.604;13.318;2023-09-30T00:52:18;101561.28;;;16.04;85.02
57234;BME280;43090;52.604;13.318;2023-09-30T00:55:04;101527.91;;;15.71;87.50
57234;BME280;43090;52.604;13.318;2023-09-30T00:57:33;101540.44;;;15.83;86.41
57234;BME280;43090;52.604;13.318;2023-09-30T01:00:01;101544.72;;;15.63;86.59
57234;BME280;43090;52.604;13.318;2023-09-30T01:02:29;101559.69;;;16.01;85.78
57234;BME280;43090;52.604;13.318;2023-09-30T01:04:57;101552.56;;;15.89;86.38
57234;BME280;43090;52.604;13.318;2023-09-30T01:07:32;101542.53;;;15.91;86.25
57234;BME280;43090;52.604;13.318;2023-09-30T01:10:03;101527.69;;;15.85;86.07
57234;BME280;43090;52.604;13.318;2023-09-30T01:12:32;101564.94;;;16.14;86.43
57234;BME280;43090;52.604;13.318;2023-09-30T01:15:01;101542.88;;;15.97;86.17
57234;BME280;43090;52.604;13.318;2023-09-30T01:17:33;101551.72;;;15.99;84.95
57234;BME280;43090;52.604;13.318;2023-09-30T01:20:00;101563.50;;;15.98;86.79
57234;BME280;43090;52.604;13.318;2023-09-30T01:22:31;101582.41;;;15.98;87.20
57234;BME280;43090;52.604;13.318;2023-09-30T01:24:58;101566.69;;;15.70;88.28
57234;BME280;43090;52.604;13.318;2023-09-30T01:27:25;101571.25;;;15.92;87.40
57234;BME280;43090;52.604;13.318;2023-09-30T01:29:57;101587.91;;;16.08;86.74
57234;BME280;43090;52.604;13.318;2023-09-30T01:32:24;101575.03;;;16.01;86.42
57234;BME280;43090;52.604;13.318;2023-09-30T01:34:51;101586.69;;;15.78;86.48
57234;BME280;43090;52.604;13.318;2023-09-30T01:37:17;101584.88;;;15.90;86.21
57234;BME280;43090;52.604;13.318;2023-09-30T01:39:44;101576.72;;;15.68;85.82
57234;BME280;43090;52.604;13.318;2023-09-30T01:42:12;101579.97;;;15.84;85.85
57234;BME280;43090;52.604;13.318;2023-09-30T01:44:38;101607.44;;;16.12;85.15
57234;BME280;43090;52.604;13.318;2023-09-30T01:47:07;101595.50;;;15.58;87.07
57234;BME280;43090;52.604;13.318;2023-09-30T01:49:34;101622.41;;;15.71;86.27
57234;BME280;43090;52.604;13.318;2023-09-30T01:52:01;101600.44;;;15.64;86.63
57234;BME280;43090;52.604;13.318;2023-09-30T01:54:29;101591.44;;;15.63;86.05
57234;BME280;43090;52.604;13.318;2023-09-30T01:56:56;101601.28;;;15.64;86.91
57234;BME280;43090;52.604;13.318;2023-09-30T01:59:24;101626.06;;;15.70;85.60
57234;BME280;43090;52.604;13.318;2023-09-30T02:01:50;101630.72;;;15.56;86.79
57234;BME280;43090;52.604;13.318;2023-09-30T02:04:17;101644.47;;;15.64;86.61
57234;BME280;43090;52.604;13.318;2023-09-30T02:06:44;101608.84;;;15.37;86.92
57234;BME280;43090;52.604;13.318;2023-09-30T02:09:10;101646.28;;;15.41;87.27
57234;BME280;43090;52.604;13.318;2023-09-30T02:11:37;101637.75;;;15.35;87.72
57234;BME280;43090;52.604;13.318;2023-09-30T02:14:04;101618.50;;;15.28;86.86
57234;BME280;43090;52.604;13.318;2023-09-30T02:16:38;101630.53;;;15.35;86.77
57234;BME280;43090;52.604;13.318;2023-09-30T02:19:11;101649.31;;;15.37;88.07
57234;BME280;43090;52.604;13.318;2023-09-30T02:21:39;101622.78;;;15.30;87.61
57234;BME280;43090;52.604;13.318;2023-09-30T02:24:06;101630.22;;;15.51;87.05
57234;BME280;43090;52.604;13.318;2023-09-30T02:26:36;101626.50;;;15.29;87.92
57234;BME280;43090;52.604;13.318;2023-09-30T02:29:08;101624.25;;;15.23;87.38
57234;BME280;43090;52.604;13.318;2023-09-30T02:46:44;101671.66;;;14.16;97.12
57234;BME280;43090;52.604;13.318;2023-09-30T02:49:10;101679.88;;;14.52;96.01
57234;BME280;43090;52.604;13.318;2023-09-30T02:51:37;101700.78;;;14.74;94.28
57234;BME280;43090;52.604;13.318;2023-09-30T02:54:04;101690.53;;;14.53;94.84
57234;BME280;43090;52.604;13.318;2023-09-30T02:56:31;101678.03;;;14.65;93.30
57234;BME280;43090;52.604;13.318;2023-09-30T02:59:00;101689.47;;;14.56;92.17
57234;BME280;43090;52.604;13.318;2023-09-30T03:01:28;101687.41;;;14.59;93.77
57234;BME280;43090;52.604;13.318;2023-09-30T03:03:58;101677.47;;;14.73;92.75
57234;BME280;43090;52.604;13.318;2023-09-30T03:06:28;101675.81;;;14.83;91.81
57234;BME280;43090;52.604;13.318;2023-09-30T03:08:55;101684.34;;;14.77;91.78
57234;BME280;43090;52.604;13.318;2023-09-30T03:11:22;101709.50;;;14.64;93.08
57234;BME280;43090;52.604;13.318;2023-09-30T03:13:51;101670.38;;;14.46;93.27
57234;BME280;43090;52.604;13.318;2023-09-30T03:16:17;101703.41;;;14.87;92.80
57234;BME280;43090;52.604;13.318;2023-09-30T03:18:44;101713.09;;;14.89;92.86
57234;BME280;43090;52.604;13.318;2023-09-30T03:21:14;101692.47;;;14.51;93.24
57234;BME280;43090;52.604;13.318;2023-09-30T03:23:42;101709.53;;;14.39;94.92
57234;BME280;43090;52.604;13.318;2023-09-30T03:26:09;101712.00;;;14.68;92.75
57234;BME280;43090;52.604;13.318;2023-09-30T03:28:37;101706.94;;;14.50;93.33
57234;BME280;43090;52.604;13.318;2023-09-30T03:31:07;101714.81;;;14.66;92.86
57234;BME280;43090;52.604;13.318;2023-09-30T03:33:37;101710.56;;;14.75;92.86
57234;BME280;43090;52.604;13.318;2023-09-30T03:36:04;101681.94;;;14.48;93.35
57234;BME280;43090;52.604;13.318;2023-09-30T03:38:35;101703.91;;;14.68;93.09
57234;BME280;43090;52.604;13.318;2023-09-30T03:41:02;101713.66;;;14.81;91.80
57234;BME280;43090;52.604;13.318;2023-09-30T03:43:29;101716.03;;;14.86;91.32
57234;BME280;43090;52.604;13.318;2023-09-30T03:45:56;101724.94;;;14.49;93.20
57234;BME280;43090;52.604;13.318;2023-09-30T03:48:23;101694.19;;;14.52;92.70
57234;BME280;43090;52.604;13.318;2023-09-30T03:50:50;101730.84;;;14.55;93.41
57234;BME280;43090;52.604;13.318;2023-09-30T03:53:19;101714.50;;;14.06;97.69
57234;BME280;43090;52.604;13.318;2023-09-30T03:55:48;101731.63;;;14.31;96.14
57234;BME280;43090;52.604;13.318;2023-09-30T03:58:15;101701.03;;;14.19;95.80
57234;BME280;43090;52.604;13.318;2023-09-30T04:00:44;101718.41;;;14.28;96.59
57234;BME280;43090;52.604;13.318;2023-09-30T04:03:11;101739.53;;;14.34;96.28
57234;BME280;43090;52.604;13.318;2023-09-30T04:05:38;101735.94;;;14.33;95.79
57234;BME280;43090;52.604;13.318;2023-09-30T04:08:07;101723.34;;;14.21;96.76
57234;BME280;43090;52.604;13.318;2023-09-30T04:10:35;101713.44;;;14.35;94.70
57234;BME280;43090;52.604;13.318;2023-09-30T04:13:01;101726.47;;;14.41;94.29
57234;BME280;43090;52.604;13.318;2023-09-30T04:15:28;101728.75;;;14.34;94.93
57234;BME280;43090;52.604;13.318;2023-09-30T04:17:55;101721.19;;;14.13;97.34
57234;BME280;43090;52.604;13.318;2023-09-30T04:20:21;101749.19;;;14.49;95.02
57234;BME280;43090;52.604;13.318;2023-09-30T04:22:50;101739.41;;;14.10;95.97
57234;BME280;43090;52.604;13.318;2023-09-30T04:25:24;101758.47;;;14.32;94.85
57234;BME280;43090;52.604;13.318;2023-09-30T04:27:51;101742.31;;;14.07;96.08
57234;BME280;43090;52.604;13.318;2023-09-30T04:30:18;101733.47;;;14.18;95.22
57234;BME280;43090;52.604;13.318;2023-09-30T04:32:45;101726.91;;;14.09;95.28
57234;BME280;43090;52.604;13.318;2023-09-30T04:35:14;101746.41;;;14.25;96.35
57234;BME280;43090;52.604;13.318;2023-09-30T04:37:41;101756.41;;;14.49;95.24
57234;BME280;43090;52.604;13.318;2023-09-30T04:40:09;101731.44;;;14.21;96.59
57234;BME280;43090;52.604;13.318;2023-09-30T04:42:47;101754.50;;;14.38;95.40
57234;BME280;43090;52.604;13.318;2023-09-30T04:45:15;101756.72;;;14.44;93.98
57234;BME280;43090;52.604;13.318;2023-09-30T04:47:43;101725.28;;;14.19;95.02
57234;BME280;43090;52.604;13.318;2023-09-30T04:50:16;101727.00;;;13.81;97.03
57234;BME280;43090;52.604;13.318;2023-09-30T04:52:43;101726.47;;;14.15;96.02
57234;BME280;43090;52.604;13.318;2023-09-30T04:55:12;101729.16;;;14.15;95.02
57234;BME280;43090;52.604;13.318;2023-09-30T04:57:40;101723.78;;;14.15;94.93
57234;BME280;43090;52.604;13.318;2023-09-30T05:00:11;101764.63;;;14.35;94.46
57234;BME280;43090;52.604;13.318;2023-09-30T05:02:38;101746.75;;;14.08;95.11
57234;BME280;43090;52.604;13.318;2023-09-30T05:05:10;101755.56;;;14.23;94.51
57234;BME280;43090;52.604;13.318;2023-09-30T05:07:37;101735.44;;;14.03;95.05
57234;BME280;43090;52.604;13.318;2023-09-30T05:10:03;101778.72;;;14.25;95.33
57234;BME280;43090;52.604;13.318;2023-09-30T05:12:37;101776.78;;;14.14;96.53
57234;BME280;43090;52.604;13.318;2023-09-30T05:15:07;101756.63;;;13.81;97.67
57234;BME280;43090;52.604;13.318;2023-09-30T05:17:33;101780.78;;;14.22;95.94
57234;BME280;43090;52.604;13.318;2023-09-30T05:20:01;101753.91;;;13.94;95.21
57234;BME280;43090;52.604;13.318;2023-09-30T05:22:30;101770.75;;;14.11;95.78
57234;BME280;43090;52.604;13.318;2023-09-30T05:24:56;101766.75;;;14.16;94.92
57234;BME280;43090;52.604;13.318;2023-09-30T05:27:23;101787.72;;;13.73;97.38
57234;BME280;43090;52.604;13.318;2023-09-30T05:29:56;101760.84;;;13.98;95.96
57234;BME280;43090;52.604;13.318;2023-09-30T05:32:22;101786.94;;;14.24;95.26
57234;BME280;43090;52.604;13.318;2023-09-30T05:34:49;101791.88;;;14.17;95.59
57234;BME280;43090;52.604;13.318;2023-09-30T05:37:16;101776.53;;;13.79;96.13
57234;BME280;43090;52.604;13.318;2023-09-30T05:39:44;101787.47;;;13.63;99.87
57234;BME280;43090;52.604;13.318;2023-09-30T05:42:11;101797.34;;;14.03;96.88
57234;BME280;43090;52.604;13.318;2023-09-30T05:44:55;101785.78;;;13.75;98.18
57234;BME280;43090;52.604;13.318;2023-09-30T05:47:22;101792.72;;;14.05;97.75
57234;BME280;43090;52.604;13.318;2023-09-30T05:50:09;101796.59;;;14.13;96.33
57234;BME280;43090;52.604;13.318;2023-09-30T05:52:38;101792.09;;;14.01;95.70
57234;BME280;43090;52.604;13.318;2023-09-30T05:55:10;101813.69;;;13.99;96.62
57234;BME280;43090;52.604;13.318;2023-09-30T05:57:38;101812.53;;;13.91;97.28
57234;BME280;43090;52.604;13.318;2023-09-30T06:00:24;101813.91;;;13.96;98.01
57234;BME280;43090;52.604;13.318;2023-09-30T06:02:58;101827.75;;;14.18;96.97
57234;BME280;43090;52.604;13.318;2023-09-30T06:08:22;101794.25;;;14.22;97.17
57234;BME280;43090;52.604;13.318;2023-09-30T06:10:52;101806.50;;;14.26;97.91
57234;BME280;43090;52.604;13.318;2023-09-30T06:13:24;101817.84;;;14.44;96.77
57234;BME280;43090;52.604;13.318;2023-09-30T06:16:27;101828.94;;;14.39;97.07
57234;BME280;43090;52.604;13.318;2023-09-30T06:19:19;101817.69;;;13.94;97.35
57234;BME280;43090;52.604;13.318;2023-09-30T06:21:47;101844.25;;;14.52;96.72
57234;BME280;43090;52.604;13.318;2023-09-30T06:24:17;101860.84;;;14.20;97.22
57234;BME280;43090;52.604;13.318;2023-09-30T06:26:52;101835.84;;;14.43;94.79
57234;BME280;43090;52.604;13.318;2023-09-30T06:29:21;101848.56;;;14.41;96.21
57234;BME280;43090;52.604;13.318;2023-09-30T06:31:48;101860.00;;;14.45;95.51
57234;BME280;43090;52.604;13.318;2023-09-30T06:34:15;101847.16;;;14.48;95.10
57234;BME280;43090;52.604;13.318;2023-09-30T06:36:41;101869.16;;;14.42;94.81
57234;BME280;43090;52.604;13.318;2023-09-30T06:39:10;101857.38;;;14.18;95.30
57234;BME280;43090;52.604;13.318;2023-09-30T06:41:36;101869.66;;;14.22;95.46
57234;BME280;43090;52.604;13.318;2023-09-30T06:44:03;101866.78;;;14.50;95.96
57234;BME280;43090;52.604;13.318;2023-09-30T06:46:31;101863.44;;;14.47;96.22
57234;BME280;43090;52.604;13.318;2023-09-30T06:48:58;101838.50;;;14.05;95.59
57234;BME280;43090;52.604;13.318;2023-09-30T06:51:25;101871.63;;;14.58;95.77
57234;BME280;43090;52.604;13.318;2023-09-30T06:53:53;101855.88;;;14.52;94.74
57234;BME280;43090;52.604;13.318;2023-09-30T06:56:20;101883.47;;;14.43;94.47
57234;BME280;43090;52.604;13.318;2023-09-30T06:58:46;101869.28;;;14.66;94.42
57234;BME280;43090;52.604;13.318;2023-09-30T07:01:16;101859.22;;;14.94;92.86
57234;BME280;43090;52.604;13.318;2023-09-30T07:03:48;101880.50;;;14.99;92.37
57234;BME280;43090;52.604;13.318;2023-09-30T07:06:25;101878.34;;;14.91;91.12
57234;BME280;43090;52.604;13.318;2023-09-30T07:08:55;101892.38;;;14.83;91.77
57234;BME280;43090;52.604;13.318;2023-09-30T07:11:31;101878.75;;;14.85;91.92
57234;BME280;43090;52.604;13.318;2023-09-30T07:14:02;101882.19;;;14.61;92.03
57234;BME280;43090;52.604;13.318;2023-09-30T07:16:29;101914.59;;;14.74;92.02
57234;BME280;43090;52.604;13.318;2023-09-30T07:19:01;101879.66;;;14.73;91.99
57234;BME280;43090;52.604;13.318;2023-09-30T07:21:29;101905.06;;;15.07;90.41
57234;BME280;43090;52.604;13.318;2023-09-30T07:23:56;101901.59;;;14.54;91.71
57234;BME280;43090;52.604;13.318;2023-09-30T07:26:26;101888.69;;;14.72;91.52
57234;BME280;43090;52.604;13.318;2023-09-30T07:28:54;101901.84;;;14.89;90.99
57234;BME280;43090;52.604;13.318;2023-09-30T07:31:23;101899.44;;;15.23;90.00
57234;BME280;43090;52.604;13.318;2023-09-30T07:33:50;101905.06;;;14.94;88.13
57234;BME280;43090;52.604;13.318;2023-09-30T07:36:16;101925.34;;;15.13;90.04
57234;BME280;43090;52.604;13.318;2023-09-30T07:38:47;101911.19;;;15.09;89.52
57234;BME280;43090;52.604;13.318;2023-09-30T07:41:23;101935.75;;;15.30;89.44
57234;BME280;43090;52.604;13.318;2023-09-30T07:43:50;101902.28;;;14.83;90.25
57234;BME280;43090;52.604;13.318;2023-09-30T07:46:56;101936.03;;;14.76;90.67
57234;BME280;43090;52.604;13.318;2023-09-30T07:50:08;101933.13;;;15.05;90.75
57234;BME280;43090;52.604;13.318;2023-09-30T07:52:49;101918.03;;;15.02;91.49
57234;BME280;43090;52.604;13.318;2023-09-30T07:55:21;101931.78;;;15.36;89.78
57234;BME280;43090;52.604;13.318;2023-09-30T07:57:49;101924.50;;;15.12;88.58
57234;BME280;43090;52.604;13.318;2023-09-30T08:00:16;101923.47;;;15.26;90.18
57234;BME280;43090;52.604;13.318;2023-09-30T08:02:44;101929.28;;;15.46;88.50
57234;BME280;43090;52.604;13.318;2023-09-30T08:05:15;101929.63;;;15.28;89.31
57234;BME280;43090;52.604;13.318;2023-09-30T08:07:44;101922.84;;;15.23;87.99
57234;BME280;43090;52.604;13.318;2023-09-30T08:10:32;101923.03;;;15.32;87.66
57234;BME280;43090;52.604;13.318;2023-09-30T08:12:59;101930.19;;;15.21;87.49
57234;BME280;43090;52.604;13.318;2023-09-30T08:15:29;101932.34;;;15.28;87.61
57234;BME280;43090;52.604;13.318;2023-09-30T08:21:45;101954.59;;;15.69;87.41
57234;BME280;43090;52.604;13.318;2023-09-30T08:24:19;101952.09;;;15.66;86.72
57234;BME280;43090;52.604;13.318;2023-09-30T08:27:02;101969.63;;;15.97;85.44
57234;BME280;43090;52.604;13.318;2023-09-30T08:29:34;101938.38;;;15.32;86.25
57234;BME280;43090;52.604;13.318;2023-09-30T08:32:08;101947.72;;;15.52;86.35
57234;BME280;43090;52.604;13.318;2023-09-30T08:34:37;101950.84;;;15.59;86.50
57234;BME280;43090;52.604;13.318;2023-09-30T08:37:04;101934.53;;;15.60;86.25
57234;BME280;43090;52.604;13.318;2023-09-30T08:39:31;101976.81;;;15.86;84.47
57234;BME280;43090;52.604;13.318;2023-09-30T08:42:01;101979.63;;;15.71;86.17
57234;BME280;43090;52.604;13.318;2023-09-30T08:44:37;101958.44;;;15.78;85.95
57234;BME280;43090;52.604;13.318;2023-09-30T08:47:07;101955.69;;;15.66;86.19
57234;BME280;43090;52.604;13.318;2023-09-30T08:49:43;101943.53;;;15.85;85.90
57234;BME280;43090;52.604;13.318;2023-09-30T08:52:20;101972.28;;;15.73;84.69
57234;BME280;43090;52.604;13.318;2023-09-30T08:54:53;101942.47;;;15.75;85.11
57234;BME280;43090;52.604;13.318;2023-09-30T08:57:25;101955.25;;;15.60;85.05
57234;BME280;43090;52.604;13.318;2023-09-30T08:59:53;101933.72;;;15.84;85.23
57234;BME280;43090;52.604;13.318;2023-09-30T09:02:24;101958.66;;;15.75;86.41
57234;BME280;43090;52.604;13.318;2023-09-30T09:04:51;101956.75;;;16.01;85.17
57234;BME280;43090;52.604;13.318;2023-09-30T09:11:19;101951.28;;;15.90;85.25
57234;BME280;43090;52.604;13.318;2023-09-30T09:14:06;101971.53;;;16.08;84.39
57234;BME280;43090;52.604;13.318;2023-09-30T09:16:35;101963.63;;;16.29;84.88
57234;BME280;43090;52.604;13.318;2023-09-30T09:19:15;101967.25;;;16.41;84.14
57234;BME280;43090;52.604;13.318;2023-09-30T09:22:00;101958.16;;;16.42;83.99
57234;BME280;43090;52.604;13.318;2023-09-30T09:24:38;101962.81;;;16.40;82.71
57234;BME280;43090;52.604;13.318;2023-09-30T09:27:47;101959.63;;;16.82;82.16
57234;BME280;43090;52.604;13.318;2023-09-30T09:38:00;101966.56;;;16.97;79.98
57234;BME280;43090;52.604;13.318;2023-09-30T09:40:44;101941.78;;;16.79;79.59
57234;BME280;43090;52.604;13.318;2023-09-30T09:43:14;101958.25;;;16.88;77.74
57234;BME280;43090;52.604;13.318;2023-09-30T09:53:14;101945.03;;;17.07;77.75
57234;BME280;43090;52.604;13.318;2023-09-30T09:55:42;101927.19;;;16.93;77.53
57234;BME280;43090;52.604;13.318;2023-09-30T09:58:10;101979.06;;;16.87;76.65
57234;BME280;43090;52.604;13.318;2023-09-30T10:00:40;101968.66;;;17.17;77.42
57234;BME280;43090;52.604;13.318;2023-09-30T10:03:08;101948.94;;;16.92;75.74
57234;BME280;43090;52.604;13.318;2023-09-30T10:05:38;101956.47;;;17.11;75.61
57234;BME280;43090;52.604;13.318;2023-09-30T10:08:10;101961.16;;;17.43;76.13
57234;BME280;43090;52.604;13.318;2023-09-30T10:10:38;101933.84;;;17.35;77.04
57234;BME280;43090;52.604;13.318;2023-09-30T10:16:55;101957.44;;;17.55;74.57
57234;BME280;43090;52.604;13.318;2023-09-30T10:19:24;101942.22;;;17.20;73.23
57234;BME280;43090;52.604;13.318;2023-09-30T10:26:20;101952.03;;;17.32;71.53
57234;BME280;43090;52.604;13.318;2023-09-30T10:28:56;101971.22;;;17.52;72.47
57234;BME280;43090;52.604;13.318;2023-09-30T10:31:55;101941.59;;;17.28;71.01
57234;BME280;43090;52.604;13.318;2023-09-30T10:34:24;101984.38;;;17.79;71.90
57234;BME280;43090;52.604;13.318;2023-09-30T10:36:56;101946.38;;;16.90;71.37
57234;BME280;43090;52.604;13.318;2023-09-30T10:39:53;101975.31;;;17.46;71.18
57234;BME280;43090;52.604;13.318;2023-09-30T10:43:02;101978.69;;;17.71;72.17
57234;BME280;43090;52.604;13.318;2023-09-30T10:51:18;101957.28;;;17.68;69.38
57234;BME280;43090;52.604;13.318;2023-09-30T11:00:55;101961.88;;;17.22;70.90
57234;BME280;43090;52.604;13.318;2023-09-30T11:03:25;101960.16;;;17.32;72.35
57234;BME280;43090;52.604;13.318;2023-09-30T11:05:53;101939.00;;;17.38;71.65
57234;BME280;43090;52.604;13.318;2023-09-30T11:08:40;101964.44;;;17.69;72.39
57234;BME280;43090;52.604;13.318;2023-09-30T11:11:11;101965.56;;;17.55;69.96
57234;BME280;43090;52.604;13.318;2023-09-30T11:13:38;101954.09;;;17.63;70.61
57234;BME280;43090;52.604;13.318;2023-09-30T11:16:05;101954.19;;;17.95;69.82
57234;BME280;43090;52.604;13.318;2023-09-30T11:18:32;101944.38;;;18.15;70.64
57234;BME280;43090;52.604;13.318;2023-09-30T11:21:10;101954.50;;;18.35;71.69
57234;BME280;43090;52.604;13.318;2023-09-30T11:23:40;101966.13;;;18.25;68.08
57234;BME280;43090;52.604;13.318;2023-09-30T11:26:10;101945.91;;;18.29;69.71
57234;BME280;43090;52.604;13.318;2023-09-30T11:28:41;101954.84;;;18.84;68.62
57234;BME280;43090;52.604;13.318;2023-09-30T11:31:12;101960.84;;;18.77;65.68
57234;BME280;43090;52.604;13.318;2023-09-30T11:33:54;101927.59;;;18.43;62.14
57234;BME280;43090;52.604;13.318;2023-09-30T11:36:26;101942.16;;;18.42;60.85
57234;BME280;43090;52.604;13.318;2023-09-30T11:38:56;101938.06;;;18.69;60.25
57234;BME280;43090;52.604;13.318;2023-09-30T11:41:35;101930.53;;;18.72;60.89
57234;BME280;43090;52.604;13.318;2023-09-30T11:44:07;101920.34;;;18.64;61.54
57234;BME280;43090;52.604;13.318;2023-09-30T11:46:58;101929.50;;;18.94;60.96
57234;BME280;43090;52.604;13.318;2023-09-30T11:51:57;101903.78;;;19.20;60.33
57234;BME280;43090;52.604;13.318;2023-09-30T11:57:13;101906.59;;;18.87;58.52
57234;BME280;43090;52.604;13.318;2023-09-30T11:59:47;101939.03;;;19.41;57.37
57234;BME280;43090;52.604;13.318;2023-09-30T12:02:15;101905.00;;;19.06;59.98
57234;BME280;43090;52.604;13.318;2023-09-30T12:04:45;101919.06;;;19.21;58.81
57234;BME280;43090;52.604;13.318;2023-09-30T12:07:15;101917.00;;;19.03;59.98
57234;BME280;43090;52.604;13.318;2023-09-30T12:09:51;101902.72;;;18.80;57.44
57234;BME280;43090;52.604;13.318;2023-09-30T12:12:20;101920.03;;;19.10;58.15
57234;BME280;43090;52.604;13.318;2023-09-30T12:14:46;101936.22;;;19.21;58.40
57234;BME280;43090;52.604;13.318;2023-09-30T12:17:14;101918.13;;;19.01;59.07
57234;BME280;43090;52.604;13.318;2023-09-30T12:19:41;101895.13;;;18.95;54.38
57234;BME280;43090;52.604;13.318;2023-09-30T12:22:10;101922.69;;;19.31;57.05
57234;BME280;43090;52.604;13.318;2023-09-30T12:24:37;101913.88;;;19.08;57.25
57234;BME280;43090;52.604;13.318;2023-09-30T12:27:04;101905.69;;;18.98;55.62
57234;BME280;43090;52.604;13.318;2023-09-30T12:29:31;101916.09;;;19.34;54.56
57234;BME280;43090;52.604;13.318;2023-09-30T12:31:58;101914.56;;;19.41;56.15
57234;BME280;43090;52.604;13.318;2023-09-30T12:34:28;101891.28;;;19.07;57.70
57234;BME280;43090;52.604;13.318;2023-09-30T12:37:33;101896.81;;;19.37;57.18
57234;BME280;43090;52.604;13.318;2023-09-30T12:40:19;101901.41;;;19.46;56.02
57234;BME280;43090;52.604;13.318;2023-09-30T12:42:56;101873.63;;;19.23;56.49
57234;BME280;43090;52.604;13.318;2023-09-30T12:45:36;101879.75;;;19.15;57.78
57234;BME280;43090;52.604;13.318;2023-09-30T12:48:19;101901.91;;;19.61;56.46
57234;BME280;43090;52.604;13.318;2023-09-30T12:50:50;101904.16;;;19.56;57.68
57234;BME280;43090;52.604;13.318;2023-09-30T12:53:37;101890.69;;;19.44;57.17
57234;BME280;43090;52.604;13.318;2023-09-30T12:56:45;101905.91;;;19.67;55.75
57234;BME280;43090;52.604;13.318;2023-09-30T12:59:14;101888.34;;;19.80;56.00
57234;BME280;43090;52.604;13.318;2023-09-30T13:01:48;101883.56;;;19.03;54.88
57234;BME280;43090;52.604;13.318;2023-09-30T13:04:25;101891.31;;;18.86;55.33
57234;BME280;43090;52.604;13.318;2023-09-30T13:06:57;101883.84;;;19.00;56.00
57234;BME280;43090;52.604;13.318;2023-09-30T13:09:24;101917.16;;;19.11;56.42
57234;BME280;43090;52.604;13.318;2023-09-30T13:11:53;101900.72;;;18.82;55.24
57234;BME280;43090;52.604;13.318;2023-09-30T13:14:23;101897.03;;;18.83;54.91
57234;BME280;43090;52.604;13.318;2023-09-30T13:16:57;101908.41;;;18.98;56.76
57234;BME280;43090;52.604;13.318;2023-09-30T13:19:24;101900.25;;;18.77;54.33
57234;BME280;43090;52.604;13.318;2023-09-30T13:21:54;101901.31;;;18.86;54.78
57234;BME280;43090;52.604;13.318;2023-09-30T13:24:26;101875.78;;;18.88;53.39
57234;BME280;43090;52.604;13.318;2023-09-30T13:27:15;101919.44;;;18.85;51.75
57234;BME280;43090;52.604;13.318;2023-09-30T13:29:42;101885.69;;;18.68;53.17
57234;BME280;43090;52.604;13.318;2023-09-30T13:32:10;101872.28;;;18.76;53.46
57234;BME280;43090;52.604;13.318;2023-09-30T13:34:57;101909.00;;;19.02;51.93
57234;BME280;43090;52.604;13.318;2023-09-30T13:37:38;101899.94;;;18.91;52.23
57234;BME280;43090;52.604;13.318;2023-09-30T13:40:22;101901.03;;;19.10;52.36
57234;BME280;43090;52.604;13.318;2023-09-30T13:50:36;101912.69;;;19.01;53.44
57234;BME280;43090;52.604;13.318;2023-09-30T13:53:05;101887.97;;;18.94;51.04
57234;BME280;43090;52.604;13.318;2023-09-30T13:55:32;101912.41;;;19.04;49.67
57234;BME280;43090;52.604;13.318;2023-09-30T13:57:59;101899.28;;;19.09;51.94
57234;BME280;43090;52.604;13.318;2023-09-30T14:00:26;101879.44;;;19.08;50.83
57234;BME280;43090;52.604;13.318;2023-09-30T14:02:55;101903.28;;;19.36;49.11
57234;BME280;43090;52.604;13.318;2023-09-30T14:05:23;101905.41;;;19.42;49.94
57234;BME280;43090;52.604;13.318;2023-09-30T14:07:50;101902.53;;;19.43;50.79
57234;BME280;43090;52.604;13.318;2023-09-30T14:10:22;101919.47;;;19.67;51.36
57234;BME280;43090;52.604;13.318;2023-09-30T14:12:53;101888.72;;;19.56;51.42
57234;BME280;43090;52.604;13.318;2023-09-30T14:15:31;101917.91;;;19.54;50.63
57234;BME280;43090;52.604;13.318;2023-09-30T14:18:35;101877.88;;;19.06;49.24